sensor_id;sensor_type;location;lat;lon;timestamp;temperature;humidity
7844;DHT22;3967;48.702;9.326;2022-10-31T00:00:52;13.30;99.90
7844;DHT22;3967;48.702;9.326;2022-10-31T00:03:19;13.20;99.90
7844;DHT22;3967;48.702;9.326;2022-10-31T00:05:47;13.20;99.90
7844;DHT22;3967;48.702;9.326;2022-10-31T00:08:16;13.20;99.90
7844;DHT22;3967;48.702;9.326;2022-10-31T00:10:44;13.00;99.90
7844;DHT22;3967;48.702;9.326;2022-10-31T00:13:11;13.00;99.90
7844;DHT22;3967;48.702;9.326;2022-10-31T00:15:39;12.90;99.90
7844;DHT22;3967;48.702;9.326;2022-10-31T00:18:08;12.80;99.90
7844;DHT22;3967;48.702;9.326;2022-10-31T00:20:36;12.70;99.90
7844;DHT22;3967;48.702;9.326;2022-10-31T00:23:04;12.70;99.90
7844;DHT22;3967;48.702;9.326;2022-10-31T00:25:37;12.60;99.90
7844;DHT22;3967;48.702;9.326;2022-10-31T00:28:05;12.50;99.90
7844;DHT22;3967;48.702;9.326;2022-10-31T00:30:32;12.50;99.90
7844;DHT22;3967;48.702;9.326;2022-10-31T00:32:59;12.50;99.90
7844;DHT22;3967;48.702;9.326;2022-10-31T00:35:26;12.40;99.90
7844;DHT22;3967;48.702;9.326;2022-10-31T00:37:53;12.30;99.90
7844;DHT22;3967;48.702;9.326;2022-10-31T00:40:20;12.40;99.90
7844;DHT22;3967;48.702;9.326;2022-10-31T00:42:46;12.50;99.90
7844;DHT22;3967;48.702;9.326;2022-10-31T00:45:13;12.60;99.90
7844;DHT22;3967;48.702;9.326;2022-10-31T00:47:39;12.60;99.90
7844;DHT22;3967;48.702;9.326;2022-10-31T00:50:07;12.60;99.90
7844;DHT22;3967;48.702;9.326;2022-10-31T00:52:34;12.60;99.90
7844;DHT22;3967;48.702;9.326;2022-10-31T00:55:01;12.50;99.90
7844;DHT22;3967;48.702;9.326;2022-10-31T00:57:27;12.40;99.90
7844;DHT22;3967;48.702;9.326;2022-10-31T00:59:54;12.40;99.90
7844;DHT22;3967;48.702;9.326;2022-10-31T01:02:21;12.40;99.90
7844;DHT22;3967;48.702;9.326;2022-10-31T01:04:48;12.40;99.90
7844;DHT22;3967;48.702;9.326;2022-10-31T01:07:14;12.40;99.90
7844;DHT22;3967;48.702;9.326;2022-10-31T01:09:41;12.20;99.90
7844;DHT22;3967;48.702;9.326;2022-10-31T01:12:08;12.20;99.90
7844;DHT22;3967;48.702;9.326;2022-10-31T01:14:34;12.20;99.90
7844;DHT22;3967;48.702;9.326;2022-10-31T01:17:01;12.10;99.90
7844;DHT22;3967;48.702;9.326;2022-10-31T01:19:28;12.10;99.90
7844;DHT22;3967;48.702;9.326;2022-10-31T01:21:55;12.20;99.90
7844;DHT22;3967;48.702;9.326;2022-10-31T01:24:21;12.20;99.90
7844;DHT22;3967;48.702;9.326;2022-10-31T01:26:48;12.20;99.90
7844;DHT22;3967;48.702;9.326;2022-10-31T01:29:15;12.20;99.90
7844;DHT22;3967;48.702;9.326;2022-10-31T01:31:41;12.20;99.90
7844;DHT22;3967;48.702;9.326;2022-10-31T01:34:13;12.30;99.90
7844;DHT22;3967;48.702;9.326;2022-10-31T01:36:40;12.30;99.90
7844;DHT22;3967;48.702;9.326;2022-10-31T01:39:12;12.30;99.90
7844;DHT22;3967;48.702;9.326;2022-10-31T01:41:41;12.40;99.90
7844;DHT22;3967;48.702;9.326;2022-10-31T01:49:31;12.40;99.90
7844;DHT22;3967;48.702;9.326;2022-10-31T01:54:59;12.40;99.90
7844;DHT22;3967;48.702;9.326;2022-10-31T01:57:27;12.30;99.90
7844;DHT22;3967;48.702;9.326;2022-10-31T01:59:57;12.40;99.90
7844;DHT22;3967;48.702;9.326;2022-10-31T02:02:27;12.40;99.90
7844;DHT22;3967;48.702;9.326;2022-10-31T02:04:56;12.40;99.90
7844;DHT22;3967;48.702;9.326;2022-10-31T02:07:30;12.40;99.90
7844;DHT22;3967;48.702;9.326;2022-10-31T02:10:00;12.30;99.90
7844;DHT22;3967;48.702;9.326;2022-10-31T02:12:30;12.20;99.90
7844;DHT22;3967;48.702;9.326;2022-10-31T02:14:58;12.20;99.90
7844;DHT22;3967;48.702;9.326;2022-10-31T02:17:26;12.20;99.90
7844;DHT22;3967;48.702;9.326;2022-10-31T02:31:23;12.20;99.90
7844;DHT22;3967;48.702;9.326;2022-10-31T02:34:05;12.20;99.90
7844;DHT22;3967;48.702;9.326;2022-10-31T02:36:42;12.20;99.90
7844;DHT22;3967;48.702;9.326;2022-10-31T02:39:28;12.10;99.90
7844;DHT22;3967;48.702;9.326;2022-10-31T02:42:02;12.10;99.90
7844;DHT22;3967;48.702;9.326;2022-10-31T02:44:45;12.00;99.90
7844;DHT22;3967;48.702;9.326;2022-10-31T02:47:38;11.90;99.90
7844;DHT22;3967;48.702;9.326;2022-10-31T02:50:19;11.90;99.90
7844;DHT22;3967;48.702;9.326;2022-10-31T02:52:51;11.80;99.90
7844;DHT22;3967;48.702;9.326;2022-10-31T02:57:56;12.00;99.90
7844;DHT22;3967;48.702;9.326;2022-10-31T03:00:25;11.90;99.90
7844;DHT22;3967;48.702;9.326;2022-10-31T03:05:43;12.00;99.90
7844;DHT22;3967;48.702;9.326;2022-10-31T03:11:05;12.00;99.90
7844;DHT22;3967;48.702;9.326;2022-10-31T03:16:50;11.90;99.90
7844;DHT22;3967;48.702;9.326;2022-10-31T03:19:25;11.90;99.90
7844;DHT22;3967;48.702;9.326;2022-10-31T03:21:57;11.90;99.90
7844;DHT22;3967;48.702;9.326;2022-10-31T03:24:29;11.90;99.90
7844;DHT22;3967;48.702;9.326;2022-10-31T03:26:58;12.00;99.90
7844;DHT22;3967;48.702;9.326;2022-10-31T03:29:28;11.90;99.90
7844;DHT22;3967;48.702;9.326;2022-10-31T03:32:13;11.90;99.90
7844;DHT22;3967;48.702;9.326;2022-10-31T03:34:42;11.90;99.90
7844;DHT22;3967;48.702;9.326;2022-10-31T03:37:14;11.80;99.90
7844;DHT22;3967;48.702;9.326;2022-10-31T03:39:45;11.90;99.90
7844;DHT22;3967;48.702;9.326;2022-10-31T03:42:20;11.80;99.90
7844;DHT22;3967;48.702;9.326;2022-10-31T03:45:10;11.70;99.90
7844;DHT22;3967;48.702;9.326;2022-10-31T03:47:39;11.60;99.90
7844;DHT22;3967;48.702;9.326;2022-10-31T03:50:08;11.70;99.90
7844;DHT22;3967;48.702;9.326;2022-10-31T03:55:20;11.70;99.90
7844;DHT22;3967;48.702;9.326;2022-10-31T04:00:39;11.70;99.90
7844;DHT22;3967;48.702;9.326;2022-10-31T04:03:17;11.60;99.90
7844;DHT22;3967;48.702;9.326;2022-10-31T04:05:46;11.60;99.90
7844;DHT22;3967;48.702;9.326;2022-10-31T04:08:18;11.60;99.90
7844;DHT22;3967;48.702;9.326;2022-10-31T04:10:48;11.50;99.90
7844;DHT22;3967;48.702;9.326;2022-10-31T04:13:21;11.40;99.90
7844;DHT22;3967;48.702;9.326;2022-10-31T04:15:51;11.40;99.90
7844;DHT22;3967;48.702;9.326;2022-10-31T04:18:18;11.30;99.90
7844;DHT22;3967;48.702;9.326;2022-10-31T04:20:46;11.40;99.90
7844;DHT22;3967;48.702;9.326;2022-10-31T04:23:24;11.40;99.90
7844;DHT22;3967;48.702;9.326;2022-10-31T04:25:50;11.40;99.90
7844;DHT22;3967;48.702;9.326;2022-10-31T04:28:18;11.30;99.90
7844;DHT22;3967;48.702;9.326;2022-10-31T04:30:44;11.30;99.90
7844;DHT22;3967;48.702;9.326;2022-10-31T04:33:11;11.30;99.90
7844;DHT22;3967;48.702;9.326;2022-10-31T04:35:38;11.30;99.90
7844;DHT22;3967;48.702;9.326;2022-10-31T04:38:04;11.20;99.90
7844;DHT22;3967;48.702;9.326;2022-10-31T04:40:31;11.20;99.90
7844;DHT22;3967;48.702;9.326;2022-10-31T04:42:58;11.30;99.90
7844;DHT22;3967;48.702;9.326;2022-10-31T04:45:25;11.30;99.90
7844;DHT22;3967;48.702;9.326;2022-10-31T04:47:52;11.20;99.90
7844;DHT22;3967;48.702;9.326;2022-10-31T04:50:18;11.10;99.90
7844;DHT22;3967;48.702;9.326;2022-10-31T04:52:46;11.10;99.90
7844;DHT22;3967;48.702;9.326;2022-10-31T04:55:13;11.00;99.90
7844;DHT22;3967;48.702;9.326;2022-10-31T04:57:47;10.90;99.90
7844;DHT22;3967;48.702;9.326;2022-10-31T05:00:17;10.90;99.90
7844;DHT22;3967;48.702;9.326;2022-10-31T05:05:12;10.80;99.90
7844;DHT22;3967;48.702;9.326;2022-10-31T05:07:40;10.90;99.90
7844;DHT22;3967;48.702;9.326;2022-10-31T05:10:12;10.90;99.90
7844;DHT22;3967;48.702;9.326;2022-10-31T05:12:47;10.90;99.90
7844;DHT22;3967;48.702;9.326;2022-10-31T05:15:15;10.90;99.90
7844;DHT22;3967;48.702;9.326;2022-10-31T05:17:42;10.90;99.90
7844;DHT22;3967;48.702;9.326;2022-10-31T05:20:10;10.90;99.90
7844;DHT22;3967;48.702;9.326;2022-10-31T05:22:37;10.90;99.90
7844;DHT22;3967;48.702;9.326;2022-10-31T05:25:04;10.80;99.90
7844;DHT22;3967;48.702;9.326;2022-10-31T05:27:30;10.80;99.90
7844;DHT22;3967;48.702;9.326;2022-10-31T05:29:57;10.70;99.90
7844;DHT22;3967;48.702;9.326;2022-10-31T05:32:26;10.70;99.90
7844;DHT22;3967;48.702;9.326;2022-10-31T05:34:53;10.50;99.90
7844;DHT22;3967;48.702;9.326;2022-10-31T05:37:20;10.60;99.90
7844;DHT22;3967;48.702;9.326;2022-10-31T05:39:46;10.60;99.90
7844;DHT22;3967;48.702;9.326;2022-10-31T05:42:13;10.60;99.90
7844;DHT22;3967;48.702;9.326;2022-10-31T05:44:39;10.60;99.90
7844;DHT22;3967;48.702;9.326;2022-10-31T05:47:06;10.60;99.90
7844;DHT22;3967;48.702;9.326;2022-10-31T05:49:33;10.60;99.90
7844;DHT22;3967;48.702;9.326;2022-10-31T05:51:59;10.60;99.90
7844;DHT22;3967;48.702;9.326;2022-10-31T05:54:26;10.60;99.90
7844;DHT22;3967;48.702;9.326;2022-10-31T05:56:52;10.70;99.90
7844;DHT22;3967;48.702;9.326;2022-10-31T05:59:19;10.60;99.90
7844;DHT22;3967;48.702;9.326;2022-10-31T06:01:46;10.70;99.90
7844;DHT22;3967;48.702;9.326;2022-10-31T06:04:14;10.70;99.90
7844;DHT22;3967;48.702;9.326;2022-10-31T06:06:40;10.70;99.90
7844;DHT22;3967;48.702;9.326;2022-10-31T06:09:07;10.60;99.90
7844;DHT22;3967;48.702;9.326;2022-10-31T06:11:33;10.60;99.90
7844;DHT22;3967;48.702;9.326;2022-10-31T06:14:00;10.50;99.90
7844;DHT22;3967;48.702;9.326;2022-10-31T06:16:27;10.40;99.90
7844;DHT22;3967;48.702;9.326;2022-10-31T06:18:53;10.30;99.90
7844;DHT22;3967;48.702;9.326;2022-10-31T06:21:20;10.30;99.90
7844;DHT22;3967;48.702;9.326;2022-10-31T06:23:47;10.30;99.90
7844;DHT22;3967;48.702;9.326;2022-10-31T06:26:14;10.40;99.90
7844;DHT22;3967;48.702;9.326;2022-10-31T06:28:40;10.40;99.90
7844;DHT22;3967;48.702;9.326;2022-10-31T06:31:07;10.40;99.90
7844;DHT22;3967;48.702;9.326;2022-10-31T06:33:34;10.40;99.90
7844;DHT22;3967;48.702;9.326;2022-10-31T06:36:01;10.40;99.90
7844;DHT22;3967;48.702;9.326;2022-10-31T06:38:28;10.40;99.90
7844;DHT22;3967;48.702;9.326;2022-10-31T06:40:54;10.40;99.90
7844;DHT22;3967;48.702;9.326;2022-10-31T06:43:22;10.50;99.90
7844;DHT22;3967;48.702;9.326;2022-10-31T06:45:48;10.60;99.90
7844;DHT22;3967;48.702;9.326;2022-10-31T06:48:15;10.50;99.90
7844;DHT22;3967;48.702;9.326;2022-10-31T06:50:44;10.50;99.90
7844;DHT22;3967;48.702;9.326;2022-10-31T06:53:11;10.30;99.90
7844;DHT22;3967;48.702;9.326;2022-10-31T06:55:38;10.30;99.90
7844;DHT22;3967;48.702;9.326;2022-10-31T06:58:05;10.10;99.90
7844;DHT22;3967;48.702;9.326;2022-10-31T07:00:32;10.20;99.90
7844;DHT22;3967;48.702;9.326;2022-10-31T07:03:02;10.30;99.90
7844;DHT22;3967;48.702;9.326;2022-10-31T07:05:30;10.40;99.90
7844;DHT22;3967;48.702;9.326;2022-10-31T07:07:59;10.40;99.90
7844;DHT22;3967;48.702;9.326;2022-10-31T07:10:28;10.30;99.90
7844;DHT22;3967;48.702;9.326;2022-10-31T07:13:03;10.40;99.90
7844;DHT22;3967;48.702;9.326;2022-10-31T07:15:33;10.40;99.90
7844;DHT22;3967;48.702;9.326;2022-10-31T07:18:01;10.40;99.90
7844;DHT22;3967;48.702;9.326;2022-10-31T07:20:29;10.50;99.90
7844;DHT22;3967;48.702;9.326;2022-10-31T07:22:56;10.40;99.90
7844;DHT22;3967;48.702;9.326;2022-10-31T07:25:24;10.50;99.90
7844;DHT22;3967;48.702;9.326;2022-10-31T07:27:50;10.50;99.90
7844;DHT22;3967;48.702;9.326;2022-10-31T07:30:17;10.40;99.90
7844;DHT22;3967;48.702;9.326;2022-10-31T07:32:49;10.50;99.90
7844;DHT22;3967;48.702;9.326;2022-10-31T07:35:21;10.50;99.90
7844;DHT22;3967;48.702;9.326;2022-10-31T07:37:49;10.60;99.90
7844;DHT22;3967;48.702;9.326;2022-10-31T07:40:16;10.60;99.90
7844;DHT22;3967;48.702;9.326;2022-10-31T07:42:45;10.60;99.90
7844;DHT22;3967;48.702;9.326;2022-10-31T07:45:15;10.70;99.90
7844;DHT22;3967;48.702;9.326;2022-10-31T07:47:46;10.70;99.90
7844;DHT22;3967;48.702;9.326;2022-10-31T07:50:21;10.50;99.90
7844;DHT22;3967;48.702;9.326;2022-10-31T07:52:48;10.50;99.90
7844;DHT22;3967;48.702;9.326;2022-10-31T07:55:23;10.70;99.90
7844;DHT22;3967;48.702;9.326;2022-10-31T07:58:04;10.70;99.90
7844;DHT22;3967;48.702;9.326;2022-10-31T08:00:32;10.70;99.90
7844;DHT22;3967;48.702;9.326;2022-10-31T08:03:00;10.90;99.90
7844;DHT22;3967;48.702;9.326;2022-10-31T08:05:28;10.90;99.90
7844;DHT22;3967;48.702;9.326;2022-10-31T08:07:56;10.90;99.90
7844;DHT22;3967;48.702;9.326;2022-10-31T08:10:24;10.90;99.90
7844;DHT22;3967;48.702;9.326;2022-10-31T08:13:02;11.00;99.90
7844;DHT22;3967;48.702;9.326;2022-10-31T08:15:29;11.00;99.90
7844;DHT22;3967;48.702;9.326;2022-10-31T08:17:56;11.10;99.90
7844;DHT22;3967;48.702;9.326;2022-10-31T08:20:24;11.10;99.90
7844;DHT22;3967;48.702;9.326;2022-10-31T08:22:55;11.10;99.90
7844;DHT22;3967;48.702;9.326;2022-10-31T08:25:22;11.10;99.90
7844;DHT22;3967;48.702;9.326;2022-10-31T08:27:53;11.20;99.90
7844;DHT22;3967;48.702;9.326;2022-10-31T08:30:23;11.30;99.90
7844;DHT22;3967;48.702;9.326;2022-10-31T08:33:06;11.20;99.90
7844;DHT22;3967;48.702;9.326;2022-10-31T08:35:35;11.30;99.90
7844;DHT22;3967;48.702;9.326;2022-10-31T08:38:01;11.30;99.90
7844;DHT22;3967;48.702;9.326;2022-10-31T08:40:30;11.40;99.90
7844;DHT22;3967;48.702;9.326;2022-10-31T08:43:00;11.60;99.90
7844;DHT22;3967;48.702;9.326;2022-10-31T08:45:28;11.70;99.90
7844;DHT22;3967;48.702;9.326;2022-10-31T08:48:01;11.70;99.90
7844;DHT22;3967;48.702;9.326;2022-10-31T08:50:29;11.70;99.90
7844;DHT22;3967;48.702;9.326;2022-10-31T08:53:05;11.80;99.90
7844;DHT22;3967;48.702;9.326;2022-10-31T08:55:37;11.90;99.90
7844;DHT22;3967;48.702;9.326;2022-10-31T08:58:05;12.00;99.90
7844;DHT22;3967;48.702;9.326;2022-10-31T09:00:33;11.90;99.90
7844;DHT22;3967;48.702;9.326;2022-10-31T09:03:03;12.00;99.90
7844;DHT22;3967;48.702;9.326;2022-10-31T09:05:31;12.10;99.90
7844;DHT22;3967;48.702;9.326;2022-10-31T09:07:59;12.20;99.90
7844;DHT22;3967;48.702;9.326;2022-10-31T09:10:27;12.20;99.90
7844;DHT22;3967;48.702;9.326;2022-10-31T09:12:59;12.20;99.90
7844;DHT22;3967;48.702;9.326;2022-10-31T09:15:27;12.20;99.90
7844;DHT22;3967;48.702;9.326;2022-10-31T09:17:54;12.20;99.90
7844;DHT22;3967;48.702;9.326;2022-10-31T09:20:21;12.20;99.90
7844;DHT22;3967;48.702;9.326;2022-10-31T09:22:48;12.30;99.90
7844;DHT22;3967;48.702;9.326;2022-10-31T09:25:21;12.30;99.90
7844;DHT22;3967;48.702;9.326;2022-10-31T09:27:48;12.50;99.90
7844;DHT22;3967;48.702;9.326;2022-10-31T09:30:14;12.50;99.90
7844;DHT22;3967;48.702;9.326;2022-10-31T09:32:41;12.50;99.90
7844;DHT22;3967;48.702;9.326;2022-10-31T09:35:08;12.60;99.90
7844;DHT22;3967;48.702;9.326;2022-10-31T09:37:35;12.70;99.90
7844;DHT22;3967;48.702;9.326;2022-10-31T09:40:02;12.80;99.90
7844;DHT22;3967;48.702;9.326;2022-10-31T09:45:22;12.90;99.90
7844;DHT22;3967;48.702;9.326;2022-10-31T09:48:00;13.00;99.90
7844;DHT22;3967;48.702;9.326;2022-10-31T09:50:46;13.00;99.90
7844;DHT22;3967;48.702;9.326;2022-10-31T09:55:59;13.10;99.90
7844;DHT22;3967;48.702;9.326;2022-10-31T09:58:29;13.20;99.90
7844;DHT22;3967;48.702;9.326;2022-10-31T10:01:01;13.30;99.90
7844;DHT22;3967;48.702;9.326;2022-10-31T10:03:42;13.40;99.90
7844;DHT22;3967;48.702;9.326;2022-10-31T10:06:21;13.40;99.90
7844;DHT22;3967;48.702;9.326;2022-10-31T10:08:48;13.50;99.90
7844;DHT22;3967;48.702;9.326;2022-10-31T10:19:39;13.80;99.90
7844;DHT22;3967;48.702;9.326;2022-10-31T10:25:22;14.00;99.90
7844;DHT22;3967;48.702;9.326;2022-10-31T10:28:23;14.10;99.90
7844;DHT22;3967;48.702;9.326;2022-10-31T10:33:27;14.20;99.90
7844;DHT22;3967;48.702;9.326;2022-10-31T10:36:01;14.30;99.90
7844;DHT22;3967;48.702;9.326;2022-10-31T10:38:54;14.50;99.90
7844;DHT22;3967;48.702;9.326;2022-10-31T10:41:24;14.60;99.90
7844;DHT22;3967;48.702;9.326;2022-10-31T10:43:59;14.90;99.90
7844;DHT22;3967;48.702;9.326;2022-10-31T10:49:18;14.80;99.90
7844;DHT22;3967;48.702;9.326;2022-10-31T10:52:10;14.90;99.90
7844;DHT22;3967;48.702;9.326;2022-10-31T10:57:58;14.90;99.90
7844;DHT22;3967;48.702;9.326;2022-10-31T11:00:30;15.00;99.90
7844;DHT22;3967;48.702;9.326;2022-10-31T11:02:58;15.10;99.90
7844;DHT22;3967;48.702;9.326;2022-10-31T11:08:11;15.30;99.90
7844;DHT22;3967;48.702;9.326;2022-10-31T11:11:02;15.40;99.90
7844;DHT22;3967;48.702;9.326;2022-10-31T11:13:31;15.40;99.90
7844;DHT22;3967;48.702;9.326;2022-10-31T11:16:10;15.40;99.90
7844;DHT22;3967;48.702;9.326;2022-10-31T11:18:40;15.30;99.90
7844;DHT22;3967;48.702;9.326;2022-10-31T11:21:21;15.50;99.90
7844;DHT22;3967;48.702;9.326;2022-10-31T11:23:50;15.60;99.90
7844;DHT22;3967;48.702;9.326;2022-10-31T11:26:20;15.60;99.90
7844;DHT22;3967;48.702;9.326;2022-10-31T11:28:59;15.70;99.90
7844;DHT22;3967;48.702;9.326;2022-10-31T11:31:26;15.80;99.90
7844;DHT22;3967;48.702;9.326;2022-10-31T11:34:00;15.70;99.90
7844;DHT22;3967;48.702;9.326;2022-10-31T11:36:45;15.90;99.90
7844;DHT22;3967;48.702;9.326;2022-10-31T11:39:23;16.00;99.90
7844;DHT22;3967;48.702;9.326;2022-10-31T11:41:52;16.00;99.90
7844;DHT22;3967;48.702;9.326;2022-10-31T11:44:30;16.10;99.90
7844;DHT22;3967;48.702;9.326;2022-10-31T11:46:59;16.10;99.90
7844;DHT22;3967;48.702;9.326;2022-10-31T11:49:38;16.10;99.90
7844;DHT22;3967;48.702;9.326;2022-10-31T11:55:00;16.30;99.90
7844;DHT22;3967;48.702;9.326;2022-10-31T11:57:28;16.30;99.90
7844;DHT22;3967;48.702;9.326;2022-10-31T11:59:58;16.50;99.70
7844;DHT22;3967;48.702;9.326;2022-10-31T12:02:25;16.60;99.40
7844;DHT22;3967;48.702;9.326;2022-10-31T12:05:02;16.70;99.70
7844;DHT22;3967;48.702;9.326;2022-10-31T12:07:31;16.80;98.90
7844;DHT22;3967;48.702;9.326;2022-10-31T12:09:57;16.80;98.00
7844;DHT22;3967;48.702;9.326;2022-10-31T12:15:35;16.90;97.20
7844;DHT22;3967;48.702;9.326;2022-10-31T12:23:54;17.10;97.40
7844;DHT22;3967;48.702;9.326;2022-10-31T12:43:15;17.30;96.70
7844;DHT22;3967;48.702;9.326;2022-10-31T12:54:10;17.40;96.90
7844;DHT22;3967;48.702;9.326;2022-10-31T13:02:03;17.50;96.60
7844;DHT22;3967;48.702;9.326;2022-10-31T13:04:44;17.60;96.70
7844;DHT22;3967;48.702;9.326;2022-10-31T13:07:21;17.60;96.10
7844;DHT22;3967;48.702;9.326;2022-10-31T13:10:00;17.60;95.90
7844;DHT22;3967;48.702;9.326;2022-10-31T13:12:29;17.60;96.10
7844;DHT22;3967;48.702;9.326;2022-10-31T13:15:19;17.60;95.80
7844;DHT22;3967;48.702;9.326;2022-10-31T13:17:50;17.50;96.10
7844;DHT22;3967;48.702;9.326;2022-10-31T13:20:28;17.60;96.30
7844;DHT22;3967;48.702;9.326;2022-10-31T13:23:12;17.60;96.30
7844;DHT22;3967;48.702;9.326;2022-10-31T13:26:54;17.60;96.70
7844;DHT22;3967;48.702;9.326;2022-10-31T13:29:11;17.70;96.10
7844;DHT22;3967;48.702;9.326;2022-10-31T13:31:42;17.70;96.30
7844;DHT22;3967;48.702;9.326;2022-10-31T13:34:25;17.70;96.00
7844;DHT22;3967;48.702;9.326;2022-10-31T13:42:50;17.80;94.80
7844;DHT22;3967;48.702;9.326;2022-10-31T13:45:21;17.80;94.40
7844;DHT22;3967;48.702;9.326;2022-10-31T13:48:19;17.90;94.70
7844;DHT22;3967;48.702;9.326;2022-10-31T13:51:06;18.00;95.10
7844;DHT22;3967;48.702;9.326;2022-10-31T13:53:59;18.10;94.80
7844;DHT22;3967;48.702;9.326;2022-10-31T13:56:34;18.10;95.20
7844;DHT22;3967;48.702;9.326;2022-10-31T13:59:22;18.10;95.10
7844;DHT22;3967;48.702;9.326;2022-10-31T14:01:58;18.20;95.10
7844;DHT22;3967;48.702;9.326;2022-10-31T14:04:32;18.10;95.20
7844;DHT22;3967;48.702;9.326;2022-10-31T14:07:14;18.20;95.00
7844;DHT22;3967;48.702;9.326;2022-10-31T14:09:59;18.20;94.90
7844;DHT22;3967;48.702;9.326;2022-10-31T14:15:16;18.10;95.20
7844;DHT22;3967;48.702;9.326;2022-10-31T14:22:44;18.40;95.40
7844;DHT22;3967;48.702;9.326;2022-10-31T14:25:35;18.40;95.50
7844;DHT22;3967;48.702;9.326;2022-10-31T14:28:20;18.50;94.70
7844;DHT22;3967;48.702;9.326;2022-10-31T14:30:56;18.50;94.30
7844;DHT22;3967;48.702;9.326;2022-10-31T14:33:26;18.40;94.60
7844;DHT22;3967;48.702;9.326;2022-10-31T14:39:29;18.50;94.30
7844;DHT22;3967;48.702;9.326;2022-10-31T14:42:41;18.50;94.60
7844;DHT22;3967;48.702;9.326;2022-10-31T14:50:43;18.60;94.60
7844;DHT22;3967;48.702;9.326;2022-10-31T14:53:26;18.60;94.40
7844;DHT22;3967;48.702;9.326;2022-10-31T14:55:56;18.50;95.10
7844;DHT22;3967;48.702;9.326;2022-10-31T15:00:59;18.40;95.90
7844;DHT22;3967;48.702;9.326;2022-10-31T15:03:42;18.40;96.20
7844;DHT22;3967;48.702;9.326;2022-10-31T15:06:44;18.30;96.10
7844;DHT22;3967;48.702;9.326;2022-10-31T15:09:39;18.30;96.10
7844;DHT22;3967;48.702;9.326;2022-10-31T15:14:50;18.30;95.50
7844;DHT22;3967;48.702;9.326;2022-10-31T15:17:18;18.30;95.60
7844;DHT22;3967;48.702;9.326;2022-10-31T15:19:46;18.20;95.70
7844;DHT22;3967;48.702;9.326;2022-10-31T15:22:18;18.10;95.90
7844;DHT22;3967;48.702;9.326;2022-10-31T15:24:47;18.10;96.40
7844;DHT22;3967;48.702;9.326;2022-10-31T15:27:16;18.10;97.10
7844;DHT22;3967;48.702;9.326;2022-10-31T15:29:54;18.00;97.60
7844;DHT22;3967;48.702;9.326;2022-10-31T15:32:24;17.90;97.80
7844;DHT22;3967;48.702;9.326;2022-10-31T15:34:52;17.90;97.90
7844;DHT22;3967;48.702;9.326;2022-10-31T15:37:21;17.80;97.90
7844;DHT22;3967;48.702;9.326;2022-10-31T15:39:49;17.70;98.20
7844;DHT22;3967;48.702;9.326;2022-10-31T15:42:28;17.50;98.70
7844;DHT22;3967;48.702;9.326;2022-10-31T15:47:31;17.40;99.20
7844;DHT22;3967;48.702;9.326;2022-10-31T15:50:00;17.30;99.30
7844;DHT22;3967;48.702;9.326;2022-10-31T15:52:32;17.30;99.30
7844;DHT22;3967;48.702;9.326;2022-10-31T15:55:14;17.20;99.30
7844;DHT22;3967;48.702;9.326;2022-10-31T15:57:51;17.20;99.60
7844;DHT22;3967;48.702;9.326;2022-10-31T16:02:49;17.10;99.70
7844;DHT22;3967;48.702;9.326;2022-10-31T16:05:18;17.10;99.80
7844;DHT22;3967;48.702;9.326;2022-10-31T16:07:49;16.90;99.80
7844;DHT22;3967;48.702;9.326;2022-10-31T16:10:24;16.90;99.90
7844;DHT22;3967;48.702;9.326;2022-10-31T16:12:52;16.80;99.90
7844;DHT22;3967;48.702;9.326;2022-10-31T16:15:20;16.70;99.90
7844;DHT22;3967;48.702;9.326;2022-10-31T16:17:50;16.60;99.90
7844;DHT22;3967;48.702;9.326;2022-10-31T16:20:26;16.60;99.90
7844;DHT22;3967;48.702;9.326;2022-10-31T16:22:55;16.60;99.90
7844;DHT22;3967;48.702;9.326;2022-10-31T16:25:28;16.70;99.90
7844;DHT22;3967;48.702;9.326;2022-10-31T16:28:02;16.50;99.90
7844;DHT22;3967;48.702;9.326;2022-10-31T16:30:36;16.50;99.90
7844;DHT22;3967;48.702;9.326;2022-10-31T16:33:39;16.40;99.90
7844;DHT22;3967;48.702;9.326;2022-10-31T16:36:32;16.30;99.90
7844;DHT22;3967;48.702;9.326;2022-10-31T16:39:02;16.20;99.90
7844;DHT22;3967;48.702;9.326;2022-10-31T16:41:29;16.30;99.90
7844;DHT22;3967;48.702;9.326;2022-10-31T16:43:56;16.30;99.90
7844;DHT22;3967;48.702;9.326;2022-10-31T16:46:24;16.20;99.90
7844;DHT22;3967;48.702;9.326;2022-10-31T16:48:52;16.20;99.90
7844;DHT22;3967;48.702;9.326;2022-10-31T16:51:19;16.20;99.90
7844;DHT22;3967;48.702;9.326;2022-10-31T16:53:46;16.00;99.90
7844;DHT22;3967;48.702;9.326;2022-10-31T16:56:20;16.00;99.90
7844;DHT22;3967;48.702;9.326;2022-10-31T16:58:48;16.00;99.90
7844;DHT22;3967;48.702;9.326;2022-10-31T17:01:14;16.00;99.90
7844;DHT22;3967;48.702;9.326;2022-10-31T17:03:42;16.00;99.90
7844;DHT22;3967;48.702;9.326;2022-10-31T17:06:14;15.90;99.90
7844;DHT22;3967;48.702;9.326;2022-10-31T17:08:41;15.80;99.90
7844;DHT22;3967;48.702;9.326;2022-10-31T17:11:18;15.70;99.90
7844;DHT22;3967;48.702;9.326;2022-10-31T17:13:45;15.70;99.90
7844;DHT22;3967;48.702;9.326;2022-10-31T17:16:12;15.70;99.90
7844;DHT22;3967;48.702;9.326;2022-10-31T17:18:40;15.60;99.90
7844;DHT22;3967;48.702;9.326;2022-10-31T17:21:20;15.60;99.90
7844;DHT22;3967;48.702;9.326;2022-10-31T17:23:49;15.50;99.90
7844;DHT22;3967;48.702;9.326;2022-10-31T17:26:16;15.40;99.90
7844;DHT22;3967;48.702;9.326;2022-10-31T17:28:43;15.40;99.90
7844;DHT22;3967;48.702;9.326;2022-10-31T17:31:26;15.20;99.90
7844;DHT22;3967;48.702;9.326;2022-10-31T17:33:54;15.30;99.90
7844;DHT22;3967;48.702;9.326;2022-10-31T17:36:28;15.20;99.90
7844;DHT22;3967;48.702;9.326;2022-10-31T17:38:54;15.20;99.90
7844;DHT22;3967;48.702;9.326;2022-10-31T17:41:21;15.10;99.90
7844;DHT22;3967;48.702;9.326;2022-10-31T17:43:48;15.20;99.90
7844;DHT22;3967;48.702;9.326;2022-10-31T17:46:14;15.10;99.90
7844;DHT22;3967;48.702;9.326;2022-10-31T17:48:41;15.00;99.90
7844;DHT22;3967;48.702;9.326;2022-10-31T17:51:08;14.90;99.90
7844;DHT22;3967;48.702;9.326;2022-10-31T17:53:35;14.80;99.90
7844;DHT22;3967;48.702;9.326;2022-10-31T17:56:06;14.90;99.90
7844;DHT22;3967;48.702;9.326;2022-10-31T17:58:35;14.80;99.90
7844;DHT22;3967;48.702;9.326;2022-10-31T18:01:11;14.90;99.90
7844;DHT22;3967;48.702;9.326;2022-10-31T18:03:38;15.00;99.90
7844;DHT22;3967;48.702;9.326;2022-10-31T18:06:05;15.00;99.90
7844;DHT22;3967;48.702;9.326;2022-10-31T18:08:34;15.00;99.90
7844;DHT22;3967;48.702;9.326;2022-10-31T18:11:09;15.10;99.90
7844;DHT22;3967;48.702;9.326;2022-10-31T18:13:37;15.10;99.90
7844;DHT22;3967;48.702;9.326;2022-10-31T18:16:22;15.00;99.90
7844;DHT22;3967;48.702;9.326;2022-10-31T18:18:51;14.80;99.90
7844;DHT22;3967;48.702;9.326;2022-10-31T18:21:19;14.70;99.90
7844;DHT22;3967;48.702;9.326;2022-10-31T18:23:46;14.70;99.90
7844;DHT22;3967;48.702;9.326;2022-10-31T18:26:13;14.60;99.90
7844;DHT22;3967;48.702;9.326;2022-10-31T18:28:40;14.60;99.90
7844;DHT22;3967;48.702;9.326;2022-10-31T18:31:06;14.60;99.90
7844;DHT22;3967;48.702;9.326;2022-10-31T18:33:33;14.60;99.90
7844;DHT22;3967;48.702;9.326;2022-10-31T18:36:04;14.60;99.90
7844;DHT22;3967;48.702;9.326;2022-10-31T18:38:32;14.50;99.90
7844;DHT22;3967;48.702;9.326;2022-10-31T18:40:58;14.40;99.90
7844;DHT22;3967;48.702;9.326;2022-10-31T18:43:25;14.40;99.90
7844;DHT22;3967;48.702;9.326;2022-10-31T18:45:52;14.30;99.90
7844;DHT22;3967;48.702;9.326;2022-10-31T18:48:23;14.30;99.90
7844;DHT22;3967;48.702;9.326;2022-10-31T18:50:50;14.00;99.90